Time;durP1;ratioP1;P1;durP2;ratioP2;P2;SDS_P1;SDS_P2;PMS_P1;PMS_P2;Temp;Humidity;BMP_temperature;BMP_pressure;BME280_temperature;BME280_humidity;BME280_pressure;Samples;Min_cycle;Max_cycle;Signal;HPM_P1;HPM_P2
2022/08/11 00:00:19;;;;;;;6.47;2.90;;;;;;;22.23;49.02;100706.41;5038108;28;20033;-69
2022/08/11 00:02:50;;;;;;;5.90;3.42;;;;;;;22.21;48.79;100703.13;5002115;28;20269;-70
2022/08/11 00:05:17;;;;;;;6.13;3.13;;;;;;;22.19;49.37;100696.19;5001795;28;20263;-70
2022/08/11 00:07:44;;;;;;;5.15;3.03;;;;;;;22.18;48.40;100697.38;5018418;28;20035;-70
2022/08/11 00:10:11;;;;;;;6.18;3.17;;;;;;;22.17;48.37;100701.34;5021717;28;20029;-69
2022/08/11 00:12:37;;;;;;;6.22;3.00;;;;;;;22.11;48.83;100694.34;5004985;28;20041;-69
2022/08/11 00:15:02;;;;;;;6.82;3.20;;;;;;;22.08;48.18;100699.53;5021435;28;20040;-70
2022/08/11 00:17:31;;;;;;;6.60;3.20;;;;;;;22.03;49.24;100697.00;5021354;28;20389;-70
2022/08/11 00:20:05;;;;;;;6.55;3.22;;;;;;;22.05;48.88;100705.13;5002402;28;20053;-69
2022/08/11 00:22:30;;;;;;;5.55;3.05;;;;;;;21.99;47.14;100695.28;4989105;28;20036;-70
2022/08/11 00:24:56;;;;;;;4.82;2.50;;;;;;;22.02;47.21;100698.19;5001827;28;20036;-69
2022/08/11 00:27:32;;;;;;;5.50;3.05;;;;;;;22.04;47.07;100695.00;5016543;28;20088;-70
2022/08/11 00:29:58;;;;;;;7.03;2.95;;;;;;;22.01;46.96;100699.38;5021475;28;20033;-70
2022/08/11 00:32:23;;;;;;;4.68;2.70;;;;;;;21.97;46.67;100689.97;5005066;28;20044;-70
2022/08/11 00:34:48;;;;;;;3.97;2.50;;;;;;;21.93;45.98;100697.56;5021411;28;20384;-69
2022/08/11 00:37:20;;;;;;;5.88;3.13;;;;;;;21.91;46.23;100685.81;5021028;28;20025;-70
2022/08/11 00:39:49;;;;;;;6.13;3.10;;;;;;;21.91;48.27;100691.47;5002254;28;20091;-70
2022/08/11 00:42:45;;;;;;;9.27;3.00;;;;;;;21.87;46.85;100693.41;5021402;28;20037;-70
2022/08/11 00:45:30;;;;;;;4.18;2.80;;;;;;;21.84;46.08;100694.09;5049807;28;20025;-70
2022/08/11 00:47:56;;;;;;;5.22;2.63;;;;;;;21.82;46.27;100685.19;5019029;28;20477;-69
2022/08/11 00:50:33;;;;;;;4.20;2.60;;;;;;;21.80;45.83;100691.19;5024852;28;20060;-69
2022/08/11 00:53:27;;;;;;;5.57;2.70;;;;;;;21.77;46.14;100688.28;5041280;28;20032;-70
2022/08/11 00:56:38;;;;;;;4.22;2.85;;;;;;;21.75;46.25;100688.63;5041351;28;20091;-69
2022/08/11 00:59:17;;;;;;;4.38;2.88;;;;;;;21.69;47.43;100690.09;5040332;28;20031;-70
2022/08/11 01:02:12;;;;;;;4.20;2.63;;;;;;;21.69;47.06;100681.63;5041673;28;20048;-70
2022/08/11 01:05:02;;;;;;;4.78;3.00;;;;;;;21.67;47.14;100677.53;5039653;28;20497;-70
2022/08/11 01:08:06;;;;;;;3.65;2.40;;;;;;;21.67;45.89;100671.88;5059025;28;20069;-70
2022/08/11 01:10:50;;;;;;;7.78;3.03;;;;;;;21.61;46.41;100674.97;5023343;28;20053;-69
2022/08/11 01:13:45;;;;;;;3.78;2.55;;;;;;;21.59;45.82;100677.38;5058364;28;20098;-70
2022/08/11 01:16:32;;;;;;;4.93;2.63;;;;;;;21.57;45.45;100676.09;5041171;28;20059;-69
2022/08/11 01:19:07;;;;;;;4.72;2.75;;;;;;;21.54;45.48;100676.81;5029114;28;20029;-70
2022/08/11 01:21:45;;;;;;;5.63;2.83;;;;;;;21.52;45.29;100671.50;5056375;28;20041;-70
2022/08/11 01:24:44;;;;;;;4.80;2.50;;;;;;;21.51;45.32;100669.06;5024224;28;20029;-69
2022/08/11 01:27:18;;;;;;;5.10;3.00;;;;;;;21.48;45.87;100673.44;5043124;28;20033;-69
2022/08/11 01:30:29;;;;;;;4.32;2.70;;;;;;;21.45;45.13;100670.50;5041643;28;20074;-70
2022/08/11 01:33:19;;;;;;;5.13;2.80;;;;;;;21.40;45.80;100674.44;5042794;28;20426;-69
2022/08/11 01:35:50;;;;;;;4.85;2.95;;;;;;;21.35;46.00;100666.19;5004344;28;20039;-70
2022/08/11 01:38:34;;;;;;;2.72;2.47;;;;;;;21.32;45.50;100664.91;5035876;28;20108;-70
2022/08/11 01:41:18;;;;;;;4.35;2.55;;;;;;;21.28;46.35;100677.28;5035225;28;20559;-70
2022/08/11 01:46:51;;;;;;;3.58;2.60;;;;;;;21.24;46.32;100670.75;5058000;28;20059;-70
2022/08/11 01:49:48;;;;;;;3.38;2.67;;;;;;;21.22;46.25;100682.41;5033245;28;20025;-70
2022/08/11 01:52:19;;;;;;;3.90;3.10;;;;;;;21.15;46.53;100685.84;5009271;28;20033;-70
2022/08/11 01:55:06;;;;;;;4.38;3.00;;;;;;;21.09;47.74;100678.00;4999379;28;20084;-70
2022/08/11 01:57:40;;;;;;;5.43;2.67;;;;;;;21.08;46.52;100680.00;5031042;28;20037;-70
2022/08/11 02:00:11;;;;;;;3.67;2.83;;;;;;;21.05;47.00;100675.09;5023469;28;20033;-70
2022/08/11 02:03:11;;;;;;;4.40;2.65;;;;;;;21.00;46.93;100666.88;5040065;28;20052;-70
2022/08/11 02:05:59;;;;;;;4.03;2.80;;;;;;;20.96;46.95;100665.97;5039122;28;20032;-70
2022/08/11 02:09:02;;;;;;;3.10;2.80;;;;;;;20.94;47.53;100669.13;5024484;28;20044;-69
2022/08/11 02:11:34;;;;;;;4.90;3.00;;;;;;;20.88;48.27;100675.41;5054906;28;20049;-70
2022/08/11 02:14:24;;;;;;;4.43;3.13;;;;;;;20.83;47.60;100667.19;4991279;28;20420;-70
2022/08/11 02:17:16;;;;;;;5.65;3.00;;;;;;;20.79;48.04;100671.94;5055944;28;20262;-70
2022/08/11 02:25:45;;;;;;;6.10;3.13;;;;;;;20.63;48.55;100664.22;5057730;28;20075;-70
2022/08/11 02:28:50;;;;;;;4.85;2.97;;;;;;;20.61;48.47;100666.56;5039248;28;20568;-70
2022/08/11 02:34:14;;;;;;;5.28;2.97;;;;;;;20.54;48.14;100674.84;5057189;28;20065;-70
2022/08/11 02:37:35;;;;;;;5.30;2.83;;;;;;;20.52;48.49;100680.78;5023402;28;20057;-70
2022/08/11 02:40:10;;;;;;;6.38;3.10;;;;;;;20.46;49.23;100676.59;4984352;28;20125;-70
2022/08/11 02:42:45;;;;;;;6.57;3.10;;;;;;;20.41;49.47;100676.03;5019984;28;20493;-69
2022/08/11 02:45:35;;;;;;;4.68;3.25;;;;;;;20.37;49.08;100675.91;5046322;28;20037;-69
2022/08/11 02:52:29;;;;;;;5.80;3.28;;;;;;;20.34;49.66;100676.63;5014389;28;20021;-69
2022/08/11 02:55:13;;;;;;;4.05;3.20;;;;;;;20.27;49.75;100671.59;5006011;28;20040;-70
2022/08/11 02:57:46;;;;;;;6.72;3.22;;;;;;;20.28;49.13;100672.41;5038817;28;20025;-69
2022/08/11 03:00:13;;;;;;;4.75;3.22;;;;;;;20.25;49.52;100679.59;5022761;28;20432;-69
2022/08/11 03:03:05;;;;;;;5.28;3.25;;;;;;;20.22;49.69;100671.81;5038690;28;20515;-70
2022/08/11 03:06:32;;;;;;;4.50;3.13;;;;;;;20.19;50.56;100681.00;5018283;28;20448;-70
2022/08/11 03:09:08;;;;;;;5.47;3.33;;;;;;;20.17;50.43;100679.72;4974420;28;20085;-69
2022/08/11 03:18:05;;;;;;;6.13;3.08;;;;;;;20.04;50.90;100688.19;5027772;28;20032;-69
2022/08/11 03:20:39;;;;;;;5.57;3.28;;;;;;;20.06;51.87;100685.03;5035008;28;20058;-70
2022/08/11 03:23:11;;;;;;;3.30;2.92;;;;;;;20.04;51.25;100681.75;5035027;28;20549;-69
2022/08/11 03:26:00;;;;;;;4.35;2.90;;;;;;;20.01;50.36;100680.44;5018793;28;20033;-70
2022/08/11 03:28:52;;;;;;;4.90;3.22;;;;;;;20.03;50.33;100685.72;5020216;28;20025;-69
2022/08/11 03:31:45;;;;;;;7.10;3.50;;;;;;;19.98;50.12;100685.97;5028180;28;20049;-69
2022/08/11 03:34:17;;;;;;;;;;;;;;;19.98;49.74;100683.97;5025555;28;20041;-69
2022/08/11 03:36:45;;;;;;;4.97;2.88;;;;;;;19.98;49.51;100680.34;5018640;28;20413;-70
2022/08/11 03:39:29;;;;;;;4.30;3.13;;;;;;;19.96;49.54;100679.88;5034672;28;20037;-69
2022/08/11 03:42:39;;;;;;;6.25;3.70;;;;;;;19.91;50.43;100682.91;5018316;28;20037;-70
2022/08/11 03:45:27;;;;;;;5.47;3.00;;;;;;;19.91;50.46;100688.56;4989120;28;20034;-69
2022/08/11 03:48:17;;;;;;;4.07;3.10;;;;;;;19.91;49.55;100682.91;4962393;28;20506;-69
2022/08/11 03:50:47;;;;;;;4.97;2.92;;;;;;;19.89;49.79;100679.63;5020264;28;20048;-70
2022/08/11 03:53:17;;;;;;;5.90;3.35;;;;;;;19.83;49.98;100682.66;5001834;28;20033;-70
2022/08/11 03:56:10;;;;;;;5.25;3.20;;;;;;;19.82;49.91;100681.03;5033909;28;20041;-69
2022/08/11 03:58:58;;;;;;;4.07;3.25;;;;;;;19.81;50.34;100679.41;5035244;28;20040;-69
2022/08/11 04:02:14;;;;;;;4.55;3.20;;;;;;;19.74;50.39;100679.16;5034633;28;20420;-70
2022/08/11 04:04:53;;;;;;;8.60;3.13;;;;;;;19.72;50.63;100677.88;4938811;28;20459;-69
2022/08/11 04:08:00;;;;;;;5.45;3.10;;;;;;;19.68;50.47;100676.94;4939423;29;20043;-69
2022/08/11 04:10:51;;;;;;;4.65;2.80;;;;;;;19.66;50.05;100668.81;4927629;28;20070;-70
2022/08/11 04:13:32;;;;;;;4.65;3.30;;;;;;;19.61;50.36;100675.50;4954965;28;20130;-70
2022/08/11 04:16:14;;;;;;;5.18;3.30;;;;;;;19.57;50.06;100674.53;4939779;28;20039;-70
2022/08/11 04:19:14;;;;;;;4.38;3.20;;;;;;;19.56;50.33;100669.28;4939332;29;20047;-70
2022/08/11 04:21:45;;;;;;;6.43;3.08;;;;;;;19.56;50.21;100674.91;4941655;29;20035;-70
2022/08/11 04:24:37;;;;;;;5.45;3.20;;;;;;;19.52;49.84;100668.31;4959213;28;20028;-69
2022/08/11 04:27:31;;;;;;;4.75;3.08;;;;;;;19.49;50.31;100672.66;4927073;29;20115;-69
2022/08/11 04:30:15;;;;;;;3.80;3.03;;;;;;;19.49;49.69;100669.03;4959140;28;20027;-70
2022/08/11 04:33:11;;;;;;;4.70;2.50;;;;;;;19.46;49.64;100672.53;4942914;29;20686;-69
2022/08/11 04:36:08;;;;;;;4.47;2.80;;;;;;;19.42;49.75;100673.25;4958767;28;20090;-70
2022/08/11 04:39:08;;;;;;;4.57;3.08;;;;;;;19.37;51.38;100669.84;4983576;28;20458;-69
2022/08/11 04:45:05;;;;;;;;;;;;;;;19.32;50.02;100659.63;5005047;28;20022;-69
2022/08/11 05:03:00;;;;;;;5.60;3.25;;;;;;;19.13;50.15;100671.41;5017367;28;20517;-70
2022/08/11 05:05:57;;;;;;;4.93;3.00;;;;;;;19.11;50.18;100665.34;5017313;28;20033;-70
2022/08/11 05:08:36;;;;;;;5.38;3.08;;;;;;;19.09;50.41;100670.47;4965794;28;20054;-70
2022/08/11 05:11:20;;;;;;;3.38;3.08;;;;;;;19.08;50.73;100665.19;5017931;28;20049;-69
2022/08/11 05:36:11;;;;;;;7.15;3.10;;;;;;;19.67;51.95;100662.03;5003533;28;20030;-70
2022/08/11 05:58:06;;;;;;;5.13;3.30;;;;;;;21.01;51.90;100677.00;5042630;28;20021;-70
2022/08/11 06:00:40;;;;;;;5.13;2.85;;;;;;;21.19;51.27;100678.28;4990822;28;20504;-70
2022/08/11 06:03:09;;;;;;;5.50;3.00;;;;;;;21.36;50.94;100674.28;5008010;28;20044;-70
2022/08/11 06:05:36;;;;;;;6.25;3.00;;;;;;;21.54;50.73;100671.97;5008119;28;20370;-70
2022/08/11 06:08:05;;;;;;;5.45;3.00;;;;;;;21.72;50.13;100671.59;5007168;28;20032;-71
2022/08/11 06:10:32;;;;;;;7.30;2.85;;;;;;;21.92;49.54;100676.13;5023971;28;20033;-71
2022/08/11 06:12:59;;;;;;;4.95;2.95;;;;;;;22.11;49.29;100671.72;5023164;28;20082;-71
2022/08/11 06:15:25;;;;;;;4.22;2.60;;;;;;;22.29;48.42;100673.00;5023985;28;20032;-70
2022/08/11 06:17:50;;;;;;;3.53;2.92;;;;;;;22.48;48.13;100670.19;4990646;28;20441;-70
2022/08/11 06:20:17;;;;;;;5.80;2.65;;;;;;;22.66;47.87;100667.72;5023097;28;20049;-70
2022/08/11 06:22:47;;;;;;;5.68;3.00;;;;;;;22.85;47.53;100668.91;5023119;28;20064;-70
2022/08/11 06:25:12;;;;;;;4.82;2.90;;;;;;;23.03;47.50;100669.28;5007485;28;20052;-71
2022/08/11 06:27:39;;;;;;;7.10;3.10;;;;;;;23.22;47.94;100666.41;5022982;28;20067;-70
2022/08/11 06:30:12;;;;;;;5.60;3.05;;;;;;;23.42;46.97;100667.97;5006570;28;20028;-71
2022/08/11 06:32:37;;;;;;;;;;;;;;;23.62;46.63;100670.75;5025429;28;20039;-71
2022/08/11 06:35:21;;;;;;;4.63;2.90;;;;;;;23.82;46.49;100663.84;5023142;28;19916;-71
2022/08/11 06:38:14;;;;;;;7.40;3.45;;;;;;;24.00;46.39;100668.97;5022314;28;20032;-70
2022/08/11 06:44:04;;;;;;;6.32;3.00;;;;;;;24.36;45.24;100667.47;5024421;28;20036;-70
2022/08/11 06:46:31;;;;;;;5.57;3.40;;;;;;;24.55;44.79;100668.56;5049238;28;20036;-73
2022/08/11 06:49:01;;;;;;;5.32;3.30;;;;;;;24.70;44.84;100673.22;5002952;28;20040;-70
2022/08/11 06:51:26;;;;;;;7.68;3.20;;;;;;;24.85;44.66;100677.03;5002440;28;20064;-70
2022/08/11 06:53:57;;;;;;;9.05;3.13;;;;;;;24.98;44.22;100670.69;5022196;28;20028;-70
2022/08/11 07:02:04;;;;;;;4.60;2.80;;;;;;;25.47;43.42;100670.84;5015478;28;20064;-71
2022/08/11 07:04:42;;;;;;;4.80;2.95;;;;;;;25.66;43.16;100666.91;5038847;28;20055;-71
2022/08/11 07:15:41;;;;;;;6.10;2.85;;;;;;;26.24;41.20;100677.53;5027549;28;20029;-71
2022/08/11 07:29:09;;;;;;;4.63;2.50;;;;;;;27.00;39.39;100662.47;5023690;28;20029;-71
2022/08/11 07:31:49;;;;;;;8.55;2.65;;;;;;;27.17;39.17;100663.75;5005791;28;20025;-71
2022/08/11 07:34:34;;;;;;;6.13;2.80;;;;;;;27.31;38.95;100660.91;5002439;28;20511;-71
2022/08/11 07:37:04;;;;;;;5.63;2.50;;;;;;;27.48;39.17;100665.00;5020096;28;20100;-71
2022/08/11 07:39:33;;;;;;;4.63;2.58;;;;;;;27.62;38.34;100672.75;5005445;28;20049;-71
2022/08/11 07:41:58;;;;;;;3.78;2.58;;;;;;;27.77;37.97;100665.00;5005351;28;20037;-70
2022/08/11 07:44:27;;;;;;;4.07;2.13;;;;;;;27.88;37.63;100653.63;5021821;28;20043;-70
2022/08/11 07:52:33;;;;;;;6.35;2.13;;;;;;;28.39;36.59;100655.97;4953561;28;20476;-71
2022/08/11 07:55:04;;;;;;;6.53;2.47;;;;;;;28.49;36.50;100652.28;5010947;28;20129;-70
2022/08/11 08:19:24;;;;;;;4.40;1.80;;;;;;;29.96;32.90;100636.22;5026371;28;20071;-71
2022/08/11 08:21:50;;;;;;;9.80;1.77;;;;;;;30.16;32.10;100627.84;5021279;28;20021;-70
2022/08/11 08:24:18;;;;;;;4.03;1.55;;;;;;;30.33;30.43;100620.31;5038085;28;20107;-71
2022/08/11 08:27:02;;;;;;;8.25;1.90;;;;;;;30.50;30.94;100625.00;5021907;28;20056;-71
2022/08/11 08:32:17;;;;;;;5.85;1.73;;;;;;;30.82;29.05;100618.88;5026607;28;20084;-71
2022/08/11 08:34:43;;;;;;;3.85;1.70;;;;;;;30.96;29.47;100608.47;5020838;28;20500;-71
2022/08/11 08:37:08;;;;;;;4.22;1.60;;;;;;;30.99;28.43;100617.00;5021198;28;20037;-71
2022/08/11 08:39:36;;;;;;;5.65;1.50;;;;;;;31.09;28.23;100604.56;5020764;28;20033;-71
2022/08/11 08:42:08;;;;;;;3.30;1.60;;;;;;;31.20;27.77;100607.25;5021621;28;20064;-71
2022/08/11 08:44:34;;;;;;;8.68;1.88;;;;;;;31.33;27.33;100614.00;5016046;28;20025;-71
2022/08/11 08:46:59;;;;;;;4.53;1.60;;;;;;;31.49;27.37;100610.50;5019911;28;20029;-71
2022/08/11 08:49:30;;;;;;;3.90;1.52;;;;;;;31.59;27.08;100597.19;5017887;28;20021;-71
2022/08/11 08:51:55;;;;;;;5.82;1.67;;;;;;;31.66;26.26;100602.81;5000203;28;20458;-71
2022/08/11 08:54:27;;;;;;;6.53;1.60;;;;;;;31.74;26.09;100606.38;5000746;28;20025;-71
2022/08/11 08:56:54;;;;;;;2.42;1.70;;;;;;;31.81;25.65;100598.44;5005091;28;20021;-71
2022/08/11 08:59:20;;;;;;;4.65;1.50;;;;;;;31.85;25.75;100594.72;5004321;28;20029;-71
2022/08/11 09:01:54;;;;;;;3.15;1.30;;;;;;;31.87;25.25;100593.00;5004870;28;20035;-71
2022/08/11 09:04:20;;;;;;;5.95;1.80;;;;;;;31.89;25.06;100596.25;5003076;28;20029;-71
2022/08/11 09:06:45;;;;;;;4.45;1.60;;;;;;;31.89;24.08;100581.88;4989405;28;20029;-70
2022/08/11 09:09:11;;;;;;;3.92;1.40;;;;;;;31.83;23.76;100584.47;5028883;28;20037;-71
2022/08/11 09:11:49;;;;;;;3.92;1.50;;;;;;;31.92;24.26;100589.66;5008110;28;20052;-71
2022/08/11 09:17:22;;;;;;;5.00;1.77;;;;;;;32.16;23.85;100581.00;5026966;28;20052;-70
2022/08/11 09:19:48;;;;;;;10.13;2.30;;;;;;;32.21;23.40;100572.69;5024706;28;20504;-71
2022/08/11 09:27:48;;;;;;;7.00;1.67;;;;;;;32.16;23.10;100567.44;5012693;28;20021;-71
2022/08/11 09:30:13;;;;;;;5.63;1.80;;;;;;;32.20;23.11;100561.63;5024372;28;20036;-71
2022/08/11 09:32:40;;;;;;;4.07;1.67;;;;;;;32.23;23.28;100561.56;5012730;28;20035;-71
2022/08/11 09:35:06;;;;;;;2.65;1.55;;;;;;;32.19;23.09;100565.75;5040392;28;20017;-71
2022/08/11 09:40:27;;;;;;;3.58;1.40;;;;;;;32.23;23.72;100561.56;5028971;28;20100;-71
2022/08/11 09:45:50;;;;;;;7.78;1.60;;;;;;;32.39;23.44;100565.72;5013725;28;20029;-70
2022/08/11 09:48:19;;;;;;;4.78;1.58;;;;;;;32.39;23.36;100557.13;5023673;28;20025;-71
2022/08/11 09:50:47;;;;;;;6.47;1.73;;;;;;;32.50;23.43;100563.47;5004390;28;20064;-70
2022/08/11 09:53:14;;;;;;;10.50;1.63;;;;;;;32.48;23.60;100560.22;5007110;28;20024;-71
2022/08/11 09:55:40;;;;;;;5.60;1.65;;;;;;;32.50;23.27;100569.22;5023347;28;20556;-70
2022/08/11 09:58:17;;;;;;;5.72;1.63;;;;;;;32.48;22.81;100571.72;4990730;28;20029;-70
2022/08/11 10:00:44;;;;;;;5.03;1.40;;;;;;;32.52;23.13;100560.97;5040029;28;20507;-71
2022/08/11 10:03:25;;;;;;;2.15;1.63;;;;;;;32.61;22.94;100558.28;5023481;28;20021;-71
2022/08/11 10:08:40;;;;;;;3.65;1.80;;;;;;;32.55;23.18;100553.53;5026965;28;20037;-71
2022/08/11 10:11:13;;;;;;;7.85;1.60;;;;;;;32.46;23.00;100548.38;5001488;28;20029;-71
2022/08/11 10:16:29;;;;;;;9.02;2.30;;;;;;;32.52;22.66;100540.84;5032772;28;20028;-71
2022/08/11 10:18:55;;;;;;;5.03;1.40;;;;;;;32.60;22.92;100533.69;5039777;28;20108;-71
2022/08/11 10:21:23;;;;;;;6.72;1.98;;;;;;;32.61;22.37;100534.50;5022870;28;20045;-71
2022/08/11 10:26:53;;;;;;;5.78;1.77;;;;;;;32.52;22.26;100526.47;5022452;28;20060;-71
2022/08/11 10:35:00;;;;;;;7.05;1.55;;;;;;;32.56;22.21;100509.13;5028446;28;20500;-71
2022/08/11 10:37:33;;;;;;;5.20;1.52;;;;;;;32.65;22.21;100507.28;5023121;28;20032;-71
2022/08/11 10:39:58;;;;;;;;;;;;;;;32.79;21.64;100508.19;5007145;28;20033;-71
2022/08/11 10:47:33;;;;;;;5.32;1.40;;;;;;;33.04;21.33;100513.34;5027821;28;20273;-71
2022/08/11 10:47:54;;;;;;;2.83;1.77;;;;;;;33.08;21.60;100512.00;5016769;28;20422;-71
2022/08/11 11:01:13;;;;;;;3.92;1.58;;;;;;;33.47;21.40;100507.31;5025998;28;20029;-71
2022/08/11 11:03:39;;;;;;;6.75;1.60;;;;;;;33.58;20.86;100501.28;5022656;28;20458;-71
2022/08/11 11:06:24;;;;;;;6.60;1.33;;;;;;;33.69;20.59;100492.34;5019887;28;20033;-71
2022/08/11 11:08:52;;;;;;;5.20;1.10;;;;;;;33.81;19.84;100489.50;5031043;28;20090;-71
2022/08/11 11:11:18;;;;;;;6.60;1.25;;;;;;;33.88;19.02;100504.97;5022735;28;20120;-71
2022/08/11 11:19:18;;;;;;;5.38;1.20;;;;;;;34.00;19.04;100501.34;5010619;28;20027;-71
2022/08/11 11:21:43;;;;;;;3.17;0.93;;;;;;;34.10;19.00;100482.13;5006194;28;20594;-71
2022/08/11 11:24:44;;;;;;;4.88;1.42;;;;;;;34.18;19.18;100495.84;5022336;28;20037;-71
2022/08/11 11:27:26;;;;;;;2.13;1.00;;;;;;;34.15;18.99;100488.13;5018262;28;20090;-71
2022/08/11 11:30:00;;;;;;;5.72;1.30;;;;;;;34.24;19.17;100470.16;5018073;28;20021;-71
2022/08/11 11:32:30;;;;;;;4.30;1.23;;;;;;;34.23;19.04;100489.53;5055837;28;20029;-71
2022/08/11 11:35:12;;;;;;;2.22;1.10;;;;;;;34.11;18.77;100480.88;5038594;28;20029;-70
2022/08/11 11:37:38;;;;;;;2.85;0.98;;;;;;;34.04;18.91;100481.84;5006561;28;20488;-71
2022/08/11 11:40:09;;;;;;;2.55;1.20;;;;;;;34.12;19.05;100483.28;5021630;28;20032;-71
2022/08/11 11:42:35;;;;;;;2.85;1.20;;;;;;;34.26;19.21;100473.41;5002419;28;20033;-71
2022/08/11 11:45:00;;;;;;;3.10;1.25;;;;;;;34.37;19.74;100465.22;5019974;28;20031;-71
2022/08/11 11:47:26;;;;;;;4.53;1.10;;;;;;;34.52;20.08;100464.78;5019695;28;20029;-71
2022/08/11 11:49:53;;;;;;;5.95;1.10;;;;;;;34.60;20.29;100458.38;5038359;28;20070;-72
2022/08/11 11:52:19;;;;;;;5.95;1.33;;;;;;;34.65;19.47;100457.75;5005459;28;20029;-72
2022/08/11 11:54:49;;;;;;;5.88;1.60;;;;;;;34.69;19.79;100457.66;5018525;28;20384;-71
2022/08/11 12:02:43;;;;;;;2.13;1.23;;;;;;;34.76;19.43;100457.41;5006260;28;20030;-71
2022/08/11 12:05:09;;;;;;;4.28;1.20;;;;;;;34.74;19.75;100462.03;5005356;28;20043;-71
2022/08/11 12:10:18;;;;;;;4.88;1.30;;;;;;;34.64;19.19;100446.72;5040826;28;20028;-71
2022/08/11 12:15:28;;;;;;;5.38;1.23;;;;;;;34.42;19.65;100429.25;5010054;28;20051;-71
2022/08/11 12:17:55;;;;;;;4.80;1.40;;;;;;;34.54;19.95;100431.31;5005325;28;20037;-71
2022/08/11 12:20:21;;;;;;;5.47;1.23;;;;;;;34.63;19.67;100439.31;5042447;28;20056;-71
2022/08/11 12:28:16;;;;;;;4.00;0.90;;;;;;;34.97;19.67;100432.00;5026340;28;20033;-71
2022/08/11 12:30:46;;;;;;;5.10;1.40;;;;;;;35.05;19.54;100430.47;5005071;28;20067;-71
2022/08/11 12:33:12;;;;;;;4.32;1.17;;;;;;;35.10;19.64;100427.03;5037867;28;20053;-71
2022/08/11 12:35:37;;;;;;;3.83;1.42;;;;;;;35.14;19.27;100439.28;5021423;28;20033;-71
2022/08/11 12:38:03;;;;;;;4.95;1.17;;;;;;;35.12;19.01;100430.25;5005077;28;20032;-71
2022/08/11 12:46:01;;;;;;;5.15;1.10;;;;;;;35.22;19.28;100431.16;5029075;28;20496;-71
2022/08/11 12:54:00;;;;;;;8.40;1.40;;;;;;;35.24;19.56;100419.94;5027791;28;20041;-71
2022/08/11 13:04:54;;;;;;;4.88;1.50;;;;;;;35.48;18.95;100411.66;5029979;28;20029;-71
2022/08/11 13:07:20;;;;;;;5.00;1.20;;;;;;;35.53;19.00;100411.84;5027175;28;20128;-71
2022/08/11 13:09:45;;;;;;;13.18;1.85;;;;;;;35.49;18.90;100408.28;5008274;28;20037;-71
2022/08/11 13:14:55;;;;;;;3.25;1.10;;;;;;;35.45;18.25;100398.16;5026955;28;20085;-71
2022/08/11 13:17:21;;;;;;;5.72;1.42;;;;;;;35.42;19.00;100399.91;5008003;28;20032;-72
2022/08/11 13:19:47;;;;;;;10.20;1.23;;;;;;;35.49;19.06;100395.94;5020941;28;20037;-71
2022/08/11 13:22:12;;;;;;;3.92;1.40;;;;;;;35.51;18.96;100402.06;5020947;28;20041;-71
2022/08/11 13:24:38;;;;;;;5.72;1.17;;;;;;;35.47;18.85;100401.38;5017909;28;20037;-71
2022/08/11 13:27:03;;;;;;;3.35;1.30;;;;;;;35.46;18.97;100394.00;5019346;28;20390;-71
2022/08/11 13:29:29;;;;;;;7.13;1.25;;;;;;;35.45;19.11;100401.06;5020842;28;20021;-72
2022/08/11 13:31:57;;;;;;;7.70;1.70;;;;;;;35.55;19.10;100383.31;5021069;28;20033;-71
2022/08/11 13:34:24;;;;;;;6.65;1.35;;;;;;;35.60;18.60;100381.94;4985277;28;20029;-71
2022/08/11 13:36:50;;;;;;;3.03;1.10;;;;;;;35.70;18.61;100389.38;5018200;28;20045;-72
2022/08/11 13:39:16;;;;;;;4.82;1.25;;;;;;;35.78;19.01;100389.91;5020643;28;20029;-72
2022/08/11 13:41:43;;;;;;;2.63;1.10;;;;;;;35.84;18.51;100393.00;5004400;28;20484;-72
2022/08/11 13:44:13;;;;;;;7.25;1.00;;;;;;;35.97;18.46;100390.84;5043239;28;20044;-72
2022/08/11 13:46:39;;;;;;;4.80;1.25;;;;;;;36.01;18.27;100394.38;5040719;28;20093;-72
2022/08/11 13:49:04;;;;;;;5.05;1.30;;;;;;;36.10;18.04;100393.66;5016589;28;20728;-72
2022/08/11 13:51:29;;;;;;;4.55;1.52;;;;;;;36.13;17.87;100376.16;5020480;28;20056;-71
2022/08/11 13:54:09;;;;;;;4.53;1.52;;;;;;;36.21;18.41;100373.78;5018387;28;20025;-72
2022/08/11 13:56:39;;;;;;;4.85;1.00;;;;;;;36.20;18.44;100364.31;5001003;28;20029;-72
2022/08/11 13:59:07;;;;;;;2.83;1.40;;;;;;;36.29;18.57;100356.97;5036772;28;20025;-72
2022/08/11 14:01:34;;;;;;;5.80;1.30;;;;;;;36.32;18.46;100364.69;5020617;28;20040;-71
2022/08/11 14:04:04;;;;;;;2.50;1.05;;;;;;;36.37;18.16;100364.06;5004270;28;20044;-72
2022/08/11 14:06:30;;;;;;;2.45;1.10;;;;;;;36.31;18.41;100368.88;4987819;28;20025;-71
2022/08/11 14:08:55;;;;;;;1.90;0.90;;;;;;;36.30;18.22;100370.13;5003771;28;20608;-71
2022/08/11 14:14:06;;;;;;;3.13;1.00;;;;;;;36.31;17.89;100361.00;5015007;28;20083;-71
2022/08/11 14:16:32;;;;;;;4.80;1.35;;;;;;;36.28;17.34;100370.63;5019843;28;20026;-71
2022/08/11 14:19:00;;;;;;;5.60;1.27;;;;;;;36.18;17.56;100363.97;5013226;28;20045;-71
2022/08/11 14:24:10;;;;;;;5.70;1.17;;;;;;;36.09;17.74;100363.94;5017823;28;20034;-71
2022/08/11 14:26:37;;;;;;;2.45;1.10;;;;;;;36.05;17.90;100356.66;5003479;28;20053;-71
2022/08/11 14:29:10;;;;;;;4.18;1.20;;;;;;;35.94;17.50;100359.97;5003631;28;20072;-71
2022/08/11 14:31:45;;;;;;;;;;;;;;;35.90;18.06;100365.09;5036787;28;21007;-71
2022/08/11 14:34:11;;;;;;;4.97;1.10;;;;;;;35.80;17.49;100364.22;5000129;28;19937;-71
2022/08/11 14:36:38;;;;;;;3.60;1.23;;;;;;;35.74;17.96;100354.56;5019441;28;20037;-71
2022/08/11 14:39:11;;;;;;;2.58;1.15;;;;;;;35.75;18.16;100351.22;5019766;28;20600;-71
2022/08/11 14:47:06;;;;;;;3.55;1.10;;;;;;;35.70;17.89;100356.81;5004953;28;20052;-72
2022/08/11 14:49:35;;;;;;;2.13;0.98;;;;;;;35.68;17.94;100342.84;5019701;28;20083;-71
2022/08/11 14:52:03;;;;;;;1.58;1.02;;;;;;;35.76;17.98;100347.06;5003145;28;20037;-72
2022/08/11 14:57:14;;;;;;;4.35;1.13;;;;;;;35.75;17.85;100351.22;5021848;28;20029;-71
2022/08/11 14:59:39;;;;;;;6.75;1.30;;;;;;;35.71;18.09;100352.63;4999554;28;20049;-71
2022/08/11 15:04:50;;;;;;;2.47;0.95;;;;;;;35.69;18.16;100338.69;5008618;28;20579;-71
2022/08/11 15:07:15;;;;;;;5.50;1.10;;;;;;;35.72;18.41;100346.41;4997872;28;20037;-71
2022/08/11 15:09:42;;;;;;;3.95;0.82;;;;;;;35.69;17.91;100343.63;5013370;28;20033;-71
2022/08/11 15:12:15;;;;;;;4.38;1.20;;;;;;;35.66;17.99;100348.28;5035167;28;20108;-72
2022/08/11 15:17:25;;;;;;;3.08;1.10;;;;;;;35.58;17.63;100341.19;5021287;28;20087;-71
2022/08/11 15:25:19;;;;;;;3.60;1.02;;;;;;;35.59;17.30;100337.00;5035438;28;20226;-72
2022/08/11 15:38:49;;;;;;;2.72;1.10;;;;;;;35.46;18.49;100316.81;5016799;28;20064;-71
2022/08/11 15:46:44;;;;;;;2.72;1.17;;;;;;;35.40;18.36;100306.38;5020970;28;20057;-71
2022/08/11 15:49:28;;;;;;;3.13;0.82;;;;;;;35.34;17.84;100309.06;5025909;28;20104;-71
2022/08/11 15:52:00;;;;;;;5.43;1.02;;;;;;;35.27;18.24;100307.25;5014475;28;20041;-71
2022/08/11 15:54:27;;;;;;;6.85;1.30;;;;;;;35.25;18.59;100306.13;5012519;28;20030;-71
2022/08/11 15:56:53;;;;;;;4.60;1.10;;;;;;;35.23;18.30;100315.22;4998632;28;20033;-71
2022/08/11 16:04:48;;;;;;;4.55;1.10;;;;;;;34.95;18.34;100319.16;5015685;28;20109;-70
2022/08/11 16:07:14;;;;;;;4.03;0.98;;;;;;;34.93;18.65;100317.50;5034774;28;20037;-70
2022/08/11 16:09:45;;;;;;;5.70;1.10;;;;;;;34.87;18.84;100322.28;5018133;28;20063;-70
2022/08/11 16:12:12;;;;;;;5.57;1.00;;;;;;;34.83;18.86;100315.03;5018726;28;20596;-71
2022/08/11 16:17:50;;;;;;;4.47;1.10;;;;;;;34.62;18.85;100314.50;5021381;28;20036;-72
2022/08/11 16:20:19;;;;;;;5.82;1.40;;;;;;;34.55;18.18;100306.09;4992364;28;20042;-71
2022/08/11 16:22:46;;;;;;;6.78;1.48;;;;;;;34.47;18.57;100307.59;5020637;28;20478;-71
2022/08/11 16:25:22;;;;;;;3.72;1.00;;;;;;;34.40;18.67;100297.09;5038657;28;20033;-71
2022/08/11 16:27:53;;;;;;;1.40;1.13;;;;;;;34.36;18.68;100304.28;5038408;28;20029;-71
2022/08/11 16:30:18;;;;;;;1.48;1.00;;;;;;;34.31;18.94;100299.91;5039899;28;20527;-71
2022/08/11 16:32:45;;;;;;;2.00;1.10;;;;;;;34.21;18.87;100301.06;4989136;28;20036;-71
2022/08/11 16:40:45;;;;;;;4.30;1.08;;;;;;;33.97;19.32;100307.16;5038459;28;20104;-71